Alvwood, Minnesota
Current Conditions -  °F | °C
As of 6:31 AM on Wednesday 26 Nov 2014 (Local Time) from KVWU Reporting Station
Clear Clear  
Wind Chill: -15°   Ceiling: Unl
Heat Index: -15°   Visibility: 10mi
Dew Point: -17°   Wind: 0mph
Humidity: 85%   Direction: NA
Pressure: 30.22"   Gusts: NA
Location:  47.7306°N, 94.3762°W
Report Text: KVWU 261231Z AUTO 00000KT 10SM CLR M15/M17 A3022 RMK AO2
Loading
Personal Weather Stations






























Interactive Weather Map New forecast layout! Learn more

10-Day Weather Forecast

Advertisements
Track Severe Weather on mobile